Spurgeon, Indiana
Current Conditions -  °F | °C
As of 11:55 AM on Sunday 21 Dec 2014 (Local Time) from KHNB Reporting Station
Clear Clear  
Wind Chill: 34°   Ceiling: Unl
Heat Index: 39°   Visibility: 9mi
Dew Point: 28°   Wind: 7mph
Humidity: 65%   Direction: 140°SE
Pressure: 30.22"   Gusts: NA
Location:  38.25°N, 87.26°W
Report Text: KHNB 211755Z AUTO 14006KT 9SM CLR 04/M02 A3022 RMK AO1 10040 21060 57024
Loading
Personal Weather Stations






























Interactive Weather Map New forecast layout! Learn more

10-Day Weather Forecast

Advertisements
Track Severe Weather on mobile